Huvudsida
METAR-TAF:

METAR-TAF

Flygplatser :

Linköping, Sverige

Malmens flygplats

latitud: 58-24N, longitud: 015-31E, höjd: 93 m

Aktuellt väderrapport

Denna rapport gjordes för 34 minuter sedan, klockan 17:50 UTC
Vind 6 kt från sydost, varierande mellan ost/sydost och syd
Temperatur 13°C
Fuktighet 44%
Tryck 1014 hPa
Sikt 10 km eller mer

METAR: ESCF 221750Z AUTO 14006KT 110V170 9999 NCD 13/01 Q1014

Tid: 20:24 (18:24 UTC)


TAF: saknas

Aktuella väderrapporter och prognoser från 4000 flygplatser (METAR- och TAF-rapporter).

De tillgängliga stationerna syns som gula och röda prickar på kartan.

För musen över prickarna för att se namnen på stationerna.

Klicka sedan för att få väderrapporter och prognoser.

För att ändra kartan: Klicka på de gröna knapparna med ett svart kors på för att zooma in; den gröna knappen med ett streck på för att zooma ut; eller på de gröna pilarna för angränsande kartor.


METAR-TAF: